Flight Track Log - Related Links

Times and Time Zones

All times are in EDT time to prevent confusion due to time zone crossing. See the N720FL flight status page for this flight to view local times or setup timezone preferences in your user account.

Time Position Orientation Groundspeed Altitude Reporting Facility
EDT Latitude Longitude Course Direction KTS MPH feet Rate Location/Type
Tue 06:46:27 PM 35.5864 -79.1319 268° West 93 107 1,600  Level Washington Center
Tue 06:47:24 PM 35.5856 -79.1600 268° West 94 108 2,200 643 Climbing Washington Center
Tue 06:48:19 PM 35.5825 -79.1906 263° West 96 110 2,800 425 Climbing Washington Center
Tue 06:49:31 PM 35.5731 -79.2283 253° West 102 117 3,100 250 Climbing Washington Center
Tue 06:51:00 PM 35.5798 -79.2798 279° West  Level FlightAware Approximate
Tue 06:58:00 PM 35.5920 -79.3533 97° East  Level FlightAware Approximate
Tue 06:59:00 PM 35.5885 -79.3184 97° East  Level FlightAware Approximate
Tue 07:00:00 PM 35.5850 -79.2835 97° East  Level FlightAware Approximate
Tue 07:01:00 PM 35.5833 -79.2485 90° East  Level FlightAware Approximate
Tue 07:02:00 PM 35.5833 -79.2133 90° East  Level FlightAware Approximate
Tue 07:03:00 PM 35.5823 -79.1783 104° East  Level FlightAware Approximate
Tue 07:04:00 PM 35.5755 -79.1442 104° East  Level FlightAware Approximate
Tue 07:05:00 PM 35.5687 -79.1101 104° East  Level FlightAware Approximate
Tue 07:06:00 PM 35.5667 -79.1000 104° East  Level FlightAware Approximate
Tue 07:07:00 PM 35.5824 -79.1013 104° East  Level Estimated
Tue 07:08:00 PM 35.5824 -79.1013 104° East  Level Estimated
Tue 07:09:00 PM 35.5824 -79.1013 104° East  Level Estimated
Tue 07:10:00 PM 35.5824 -79.1013 104° East  Level Estimated
Tue 07:11:00 PM 35.5824 -79.1013 104° East  Level Estimated
Tue 07:12:00 PM 35.5824 -79.1013 104° East  Level Estimated
Tue 07:13:00 PM 35.5824 -79.1013 104° East  Level Estimated
Tue 07:14:00 PM 35.5824 -79.1013 104° East  Level Estimated
Tue 07:15:00 PM 35.5824 -79.1013 104° East  Level Estimated
Tue 07:16:00 PM 35.5824 -79.1013 104° East  Level Estimated
Tue 07:17:00 PM 35.5824 -79.1013 104° East  Level Estimated

Login

Don't have an account? Register now (free) for customized features, flight alerts, and more!